sensor_id;sensor_type;location;lat;lon;timestamp;pressure;altitude;pressure_sealevel;temperature;humidity
9325;BME280;4701;51.566;6.776;2022-10-16T05:00:37;100852.22;;;13.95;91.60
9325;BME280;4701;51.566;6.776;2022-10-16T05:02:39;100848.69;;;13.95;91.65
9325;BME280;4701;51.566;6.776;2022-10-16T05:04:41;100839.63;;;13.94;91.86
9325;BME280;4701;51.566;6.776;2022-10-16T05:06:43;100853.63;;;13.93;92.00
9325;BME280;4701;51.566;6.776;2022-10-16T05:08:44;100846.22;;;13.93;92.13
9325;BME280;4701;51.566;6.776;2022-10-16T05:10:46;100856.38;;;13.93;92.06
9325;BME280;4701;51.566;6.776;2022-10-16T05:12:48;100855.78;;;13.96;92.18
9325;BME280;4701;51.566;6.776;2022-10-16T05:14:50;100865.13;;;13.95;92.31
9325;BME280;4701;51.566;6.776;2022-10-16T05:16:53;100867.88;;;13.95;92.19
9325;BME280;4701;51.566;6.776;2022-10-16T05:18:55;100859.91;;;13.93;92.41
9325;BME280;4701;51.566;6.776;2022-10-16T05:20:56;100874.13;;;13.95;92.18
9325;BME280;4701;51.566;6.776;2022-10-16T05:22:58;100871.66;;;13.99;92.02
9325;BME280;4701;51.566;6.776;2022-10-16T05:25:00;100872.75;;;13.98;91.90
9325;BME280;4701;51.566;6.776;2022-10-16T05:27:02;100884.53;;;13.98;92.06
9325;BME280;4701;51.566;6.776;2022-10-16T05:29:04;100890.28;;;13.97;92.03
9325;BME280;4701;51.566;6.776;2022-10-16T05:31:07;100887.84;;;13.95;92.14
9325;BME280;4701;51.566;6.776;2022-10-16T05:33:10;100886.44;;;13.98;92.36
9325;BME280;4701;51.566;6.776;2022-10-16T05:35:12;100885.09;;;13.95;92.30
9325;BME280;4701;51.566;6.776;2022-10-16T05:37:13;100881.56;;;13.95;92.76
9325;BME280;4701;51.566;6.776;2022-10-16T05:39:16;100886.44;;;13.98;92.36
9325;BME280;4701;51.566;6.776;2022-10-16T05:41:18;100888.44;;;13.92;92.34
9325;BME280;4701;51.566;6.776;2022-10-16T05:43:22;100890.06;;;13.93;92.71
9325;BME280;4701;51.566;6.776;2022-10-16T05:45:23;100894.44;;;13.94;92.58
9325;BME280;4701;51.566;6.776;2022-10-16T05:47:25;100890.63;;;13.90;92.65
9325;BME280;4701;51.566;6.776;2022-10-16T05:49:29;100891.72;;;13.89;92.57
9325;BME280;4701;51.566;6.776;2022-10-16T05:51:31;100893.09;;;13.87;92.83
9325;BME280;4701;51.566;6.776;2022-10-16T05:53:34;100894.25;;;13.81;93.24
9325;BME280;4701;51.566;6.776;2022-10-16T05:55:37;100903.56;;;13.80;93.59
9325;BME280;4701;51.566;6.776;2022-10-16T05:57:38;100916.16;;;13.81;93.74
9325;BME280;4701;51.566;6.776;2022-10-16T05:59:40;100918.88;;;13.86;92.94
9325;BME280;4701;51.566;6.776;2022-10-16T06:01:42;100909.59;;;13.82;93.33
9325;BME280;4701;51.566;6.776;2022-10-16T06:03:44;100935.34;;;13.81;94.01
9325;BME280;4701;51.566;6.776;2022-10-16T06:05:47;100920.53;;;13.82;93.96
9325;BME280;4701;51.566;6.776;2022-10-16T06:07:49;100927.94;;;13.81;94.04
9325;BME280;4701;51.566;6.776;2022-10-16T06:09:51;100923.81;;;13.84;94.02
9325;BME280;4701;51.566;6.776;2022-10-16T06:11:54;100928.22;;;13.80;94.56
9325;BME280;4701;51.566;6.776;2022-10-16T06:13:57;100931.22;;;13.83;94.42
9325;BME280;4701;51.566;6.776;2022-10-16T06:16:00;100930.69;;;13.81;94.48
9325;BME280;4701;51.566;6.776;2022-10-16T06:18:02;100938.91;;;13.81;94.76
9325;BME280;4701;51.566;6.776;2022-10-16T06:20:04;100939.72;;;13.82;94.69
9325;BME280;4701;51.566;6.776;2022-10-16T06:22:07;100943.28;;;13.82;95.00
9325;BME280;4701;51.566;6.776;2022-10-16T06:24:09;100946.28;;;13.86;94.96
9325;BME280;4701;51.566;6.776;2022-10-16T06:26:13;100948.50;;;13.84;94.90
9325;BME280;4701;51.566;6.776;2022-10-16T06:28:16;100944.94;;;13.83;94.99
9325;BME280;4701;51.566;6.776;2022-10-16T06:30:17;100960.00;;;13.86;95.43
9325;BME280;4701;51.566;6.776;2022-10-16T06:32:19;100960.25;;;13.84;95.28
9325;BME280;4701;51.566;6.776;2022-10-16T06:34:22;100966.84;;;13.83;95.54
9325;BME280;4701;51.566;6.776;2022-10-16T06:36:24;100969.03;;;13.86;95.33
9325;BME280;4701;51.566;6.776;2022-10-16T06:38:27;100962.13;;;13.89;95.37
9325;BME280;4701;51.566;6.776;2022-10-16T06:40:29;100968.44;;;13.89;95.32
9325;BME280;4701;51.566;6.776;2022-10-16T06:42:31;100968.72;;;13.88;95.20
9325;BME280;4701;51.566;6.776;2022-10-16T06:44:33;100980.50;;;13.88;95.02
9325;BME280;4701;51.566;6.776;2022-10-16T06:46:35;100976.66;;;13.89;95.47
9325;BME280;4701;51.566;6.776;2022-10-16T06:48:38;100985.44;;;13.91;95.00
9325;BME280;4701;51.566;6.776;2022-10-16T06:50:40;100989.59;;;13.84;95.65
9325;BME280;4701;51.566;6.776;2022-10-16T06:52:41;100996.13;;;13.88;95.37
9325;BME280;4701;51.566;6.776;2022-10-16T06:54:44;101002.19;;;13.85;95.23
9325;BME280;4701;51.566;6.776;2022-10-16T06:56:46;100998.63;;;13.84;95.46
9325;BME280;4701;51.566;6.776;2022-10-16T06:58:49;100999.72;;;13.83;95.49
9325;BME280;4701;51.566;6.776;2022-10-16T07:00:55;101013.97;;;13.85;95.67
9325;BME280;4701;51.566;6.776;2022-10-16T07:02:57;101017.81;;;13.84;95.47
9325;BME280;4701;51.566;6.776;2022-10-16T07:04:59;101026.03;;;13.79;95.92
9325;BME280;4701;51.566;6.776;2022-10-16T07:07:00;101029.31;;;13.81;95.37
9325;BME280;4701;51.566;6.776;2022-10-16T07:09:06;101041.13;;;13.77;95.62
9325;BME280;4701;51.566;6.776;2022-10-16T07:11:11;101053.41;;;13.79;95.67
9325;BME280;4701;51.566;6.776;2022-10-16T07:13:13;101048.53;;;13.76;95.87
9325;BME280;4701;51.566;6.776;2022-10-16T07:15:15;101052.63;;;13.74;95.74
9325;BME280;4701;51.566;6.776;2022-10-16T07:17:17;101055.09;;;13.70;96.31
9325;BME280;4701;51.566;6.776;2022-10-16T07:19:19;101049.66;;;13.65;96.67
9325;BME280;4701;51.566;6.776;2022-10-16T07:21:22;101059.22;;;13.73;96.88
9325;BME280;4701;51.566;6.776;2022-10-16T07:23:25;101056.16;;;13.79;96.00
9325;BME280;4701;51.566;6.776;2022-10-16T07:25:27;101052.56;;;13.89;95.97
9325;BME280;4701;51.566;6.776;2022-10-16T07:27:30;101053.38;;;13.89;95.68
9325;BME280;4701;51.566;6.776;2022-10-16T07:29:32;101054.19;;;13.95;95.28
9325;BME280;4701;51.566;6.776;2022-10-16T07:31:34;101060.19;;;14.02;94.84
9325;BME280;4701;51.566;6.776;2022-10-16T07:33:37;101065.34;;;14.09;94.84
9325;BME280;4701;51.566;6.776;2022-10-16T07:35:47;101056.59;;;14.12;94.49
9325;BME280;4701;51.566;6.776;2022-10-16T07:37:49;101072.44;;;14.15;94.14
9325;BME280;4701;51.566;6.776;2022-10-16T07:39:50;101076.78;;;14.21;93.68
9325;BME280;4701;51.566;6.776;2022-10-16T07:41:52;101075.44;;;14.18;93.40
9325;BME280;4701;51.566;6.776;2022-10-16T07:43:56;101085.59;;;14.18;93.70
9325;BME280;4701;51.566;6.776;2022-10-16T07:46:00;101082.25;;;14.26;92.86
9325;BME280;4701;51.566;6.776;2022-10-16T07:48:02;101091.81;;;14.33;93.64
9325;BME280;4701;51.566;6.776;2022-10-16T07:50:04;101085.50;;;14.33;93.35
9325;BME280;4701;51.566;6.776;2022-10-16T07:52:06;101095.09;;;14.35;92.94
9325;BME280;4701;51.566;6.776;2022-10-16T07:54:08;101104.41;;;14.39;92.55
9325;BME280;4701;51.566;6.776;2022-10-16T07:56:10;101102.78;;;14.38;91.89
9325;BME280;4701;51.566;6.776;2022-10-16T07:58:13;101105.22;;;14.45;92.53
9325;BME280;4701;51.566;6.776;2022-10-16T08:00:16;101105.19;;;14.50;92.55
9325;BME280;4701;51.566;6.776;2022-10-16T08:02:17;101105.13;;;14.55;91.91
9325;BME280;4701;51.566;6.776;2022-10-16T08:04:19;101113.91;;;14.57;92.01
9325;BME280;4701;51.566;6.776;2022-10-16T08:06:22;101118.34;;;14.53;91.33
9325;BME280;4701;51.566;6.776;2022-10-16T08:08:24;101123.25;;;14.56;91.55
9325;BME280;4701;51.566;6.776;2022-10-16T08:10:27;101125.38;;;14.64;91.94
9325;BME280;4701;51.566;6.776;2022-10-16T08:12:30;101133.59;;;14.64;90.74
9325;BME280;4701;51.566;6.776;2022-10-16T08:14:32;101135.22;;;14.70;91.17
9325;BME280;4701;51.566;6.776;2022-10-16T08:16:35;101132.72;;;14.74;90.56
9325;BME280;4701;51.566;6.776;2022-10-16T08:18:38;101140.94;;;14.79;90.03
9325;BME280;4701;51.566;6.776;2022-10-16T08:20:41;101159.00;;;14.85;89.85
9325;BME280;4701;51.566;6.776;2022-10-16T08:22:42;101154.63;;;14.84;89.70
9325;BME280;4701;51.566;6.776;2022-10-16T08:24:44;101157.31;;;14.89;89.10
9325;BME280;4701;51.566;6.776;2022-10-16T08:26:46;101162.28;;;14.87;89.09
9325;BME280;4701;51.566;6.776;2022-10-16T08:28:49;101161.19;;;14.88;88.55
9325;BME280;4701;51.566;6.776;2022-10-16T08:30:51;101171.84;;;14.90;88.38
9325;BME280;4701;51.566;6.776;2022-10-16T08:32:54;101161.69;;;14.90;88.54
9325;BME280;4701;51.566;6.776;2022-10-16T08:34:56;101169.91;;;14.95;88.89
9325;BME280;4701;51.566;6.776;2022-10-16T08:36:58;101172.88;;;14.99;87.61
9325;BME280;4701;51.566;6.776;2022-10-16T08:38:59;101176.72;;;15.03;87.61
9325;BME280;4701;51.566;6.776;2022-10-16T08:41:17;101172.63;;;15.00;87.48
9325;BME280;4701;51.566;6.776;2022-10-16T08:43:33;101175.91;;;15.02;87.03
9325;BME280;4701;51.566;6.776;2022-10-16T08:45:45;101177.78;;;15.07;87.79
9325;BME280;4701;51.566;6.776;2022-10-16T08:48:00;101178.53;;;15.18;86.95
9325;BME280;4701;51.566;6.776;2022-10-16T08:50:09;101183.72;;;15.19;86.00
9325;BME280;4701;51.566;6.776;2022-10-16T08:52:12;101192.47;;;15.26;86.15
9325;BME280;4701;51.566;6.776;2022-10-16T08:54:22;101190.47;;;15.32;85.31
9325;BME280;4701;51.566;6.776;2022-10-16T08:56:25;101195.97;;;15.32;85.32
9325;BME280;4701;51.566;6.776;2022-10-16T08:58:29;101196.78;;;15.37;85.70
9325;BME280;4701;51.566;6.776;2022-10-16T09:00:32;101191.75;;;15.44;84.85
9325;BME280;4701;51.566;6.776;2022-10-16T09:02:37;101196.91;;;15.51;84.56
9325;BME280;4701;51.566;6.776;2022-10-16T09:04:51;101194.44;;;15.55;84.70
9325;BME280;4701;51.566;6.776;2022-10-16T09:06:57;101199.88;;;15.60;85.20
9325;BME280;4701;51.566;6.776;2022-10-16T09:09:21;101202.59;;;15.65;84.08
9325;BME280;4701;51.566;6.776;2022-10-16T09:11:34;101208.59;;;15.67;82.98
9325;BME280;4701;51.566;6.776;2022-10-16T09:13:48;101198.72;;;15.66;83.27
9325;BME280;4701;51.566;6.776;2022-10-16T09:15:58;101211.91;;;15.69;82.89
9325;BME280;4701;51.566;6.776;2022-10-16T09:18:10;101208.81;;;15.75;82.66
9325;BME280;4701;51.566;6.776;2022-10-16T09:20:19;101212.34;;;15.81;82.50
9325;BME280;4701;51.566;6.776;2022-10-16T09:22:27;101216.38;;;15.88;81.96
9325;BME280;4701;51.566;6.776;2022-10-16T09:24:29;101210.47;;;16.00;81.90
9325;BME280;4701;51.566;6.776;2022-10-16T09:26:31;101216.97;;;16.09;82.21
9325;BME280;4701;51.566;6.776;2022-10-16T09:28:33;101218.22;;;16.22;81.25
9325;BME280;4701;51.566;6.776;2022-10-16T09:30:35;101220.59;;;16.28;80.63
9325;BME280;4701;51.566;6.776;2022-10-16T09:32:38;101217.00;;;16.33;79.13
9325;BME280;4701;51.566;6.776;2022-10-16T09:34:43;101218.84;;;16.38;79.07
9325;BME280;4701;51.566;6.776;2022-10-16T09:36:48;101223.00;;;16.35;77.65
9325;BME280;4701;51.566;6.776;2022-10-16T09:39:02;101223.34;;;16.28;77.54
9325;BME280;4701;51.566;6.776;2022-10-16T09:41:14;101217.94;;;16.23;78.12
9325;BME280;4701;51.566;6.776;2022-10-16T09:43:21;101215.19;;;16.23;77.45
9325;BME280;4701;51.566;6.776;2022-10-16T09:45:24;101217.03;;;16.28;78.06
9325;BME280;4701;51.566;6.776;2022-10-16T09:47:28;101226.56;;;16.36;76.77
9325;BME280;4701;51.566;6.776;2022-10-16T09:49:30;101222.00;;;16.50;77.33
9325;BME280;4701;51.566;6.776;2022-10-16T09:51:36;101226.63;;;16.54;76.19
9325;BME280;4701;51.566;6.776;2022-10-16T09:53:41;101237.34;;;16.56;75.96
9325;BME280;4701;51.566;6.776;2022-10-16T09:55:51;101229.09;;;16.56;76.07
9325;BME280;4701;51.566;6.776;2022-10-16T09:57:53;101236.28;;;16.52;75.61
9325;BME280;4701;51.566;6.776;2022-10-16T09:59:57;101238.97;;;16.57;75.97
9325;BME280;4701;51.566;6.776;2022-10-16T10:02:03;101234.50;;;16.66;76.43
9325;BME280;4701;51.566;6.776;2022-10-16T10:04:06;101234.69;;;16.70;74.96
9325;BME280;4701;51.566;6.776;2022-10-16T10:06:17;101233.06;;;16.69;75.75
9325;BME280;4701;51.566;6.776;2022-10-16T10:08:20;101233.53;;;16.76;75.05
9325;BME280;4701;51.566;6.776;2022-10-16T10:10:25;101223.47;;;16.85;75.94
9325;BME280;4701;51.566;6.776;2022-10-16T10:12:28;101229.91;;;16.99;76.29
9325;BME280;4701;51.566;6.776;2022-10-16T10:14:35;101217.97;;;17.03;75.06
9325;BME280;4701;51.566;6.776;2022-10-16T10:16:38;101225.81;;;16.96;73.69
9325;BME280;4701;51.566;6.776;2022-10-16T10:18:40;101230.44;;;17.01;73.66
9325;BME280;4701;51.566;6.776;2022-10-16T10:20:42;101236.53;;;16.98;72.33
9325;BME280;4701;51.566;6.776;2022-10-16T10:22:45;101236.00;;;16.96;73.41
9325;BME280;4701;51.566;6.776;2022-10-16T10:24:55;101225.66;;;16.88;73.49
9325;BME280;4701;51.566;6.776;2022-10-16T10:27:03;101241.50;;;16.96;72.84
9325;BME280;4701;51.566;6.776;2022-10-16T10:29:13;101246.72;;;16.97;72.23
9325;BME280;4701;51.566;6.776;2022-10-16T10:31:22;101238.47;;;16.97;72.20
9325;BME280;4701;51.566;6.776;2022-10-16T10:33:34;101242.31;;;16.96;72.95
9325;BME280;4701;51.566;6.776;2022-10-16T10:35:44;101240.91;;;16.99;72.45
9325;BME280;4701;51.566;6.776;2022-10-16T10:37:55;101245.59;;;16.98;71.57
9325;BME280;4701;51.566;6.776;2022-10-16T10:40:11;101245.38;;;17.14;71.52
9325;BME280;4701;51.566;6.776;2022-10-16T10:42:24;101241.72;;;17.18;71.28
9325;BME280;4701;51.566;6.776;2022-10-16T10:44:53;101238.97;;;17.18;71.27
9325;BME280;4701;51.566;6.776;2022-10-16T10:47:01;101246.56;;;17.26;71.20
9325;BME280;4701;51.566;6.776;2022-10-16T10:49:28;101245.09;;;17.15;70.87
9325;BME280;4701;51.566;6.776;2022-10-16T10:51:42;101247.53;;;17.17;72.43
9325;BME280;4701;51.566;6.776;2022-10-16T10:53:56;101252.81;;;17.13;71.94
9325;BME280;4701;51.566;6.776;2022-10-16T10:56:15;101244.56;;;17.13;71.23
9325;BME280;4701;51.566;6.776;2022-10-16T10:58:44;101248.38;;;17.17;71.15
9325;BME280;4701;51.566;6.776;2022-10-16T11:00:54;101252.16;;;17.21;70.95
9325;BME280;4701;51.566;6.776;2022-10-16T11:03:06;101252.28;;;17.30;69.81
9325;BME280;4701;51.566;6.776;2022-10-16T11:05:40;101249.91;;;17.42;69.90
9325;BME280;4701;51.566;6.776;2022-10-16T11:07:47;101252.59;;;17.61;68.62
9325;BME280;4701;51.566;6.776;2022-10-16T11:09:53;101247.19;;;17.74;67.40
9325;BME280;4701;51.566;6.776;2022-10-16T11:11:58;101252.00;;;17.83;67.31
9325;BME280;4701;51.566;6.776;2022-10-16T11:14:06;101239.94;;;17.78;67.47
9325;BME280;4701;51.566;6.776;2022-10-16T11:16:17;101250.38;;;17.82;67.22
9325;BME280;4701;51.566;6.776;2022-10-16T11:18:22;101257.75;;;17.86;67.51
9325;BME280;4701;51.566;6.776;2022-10-16T11:20:27;101258.91;;;17.66;67.33
9325;BME280;4701;51.566;6.776;2022-10-16T11:22:34;101255.03;;;17.67;67.60
9325;BME280;4701;51.566;6.776;2022-10-16T11:24:42;101256.66;;;17.68;66.58
9325;BME280;4701;51.566;6.776;2022-10-16T11:26:46;101263.50;;;17.71;67.33
9325;BME280;4701;51.566;6.776;2022-10-16T11:28:50;101264.75;;;17.78;66.99
9325;BME280;4701;51.566;6.776;2022-10-16T11:30:59;101266.81;;;17.87;66.77
9325;BME280;4701;51.566;6.776;2022-10-16T11:33:15;101278.97;;;17.86;65.67
9325;BME280;4701;51.566;6.776;2022-10-16T11:35:25;101261.94;;;17.97;66.62
9325;BME280;4701;51.566;6.776;2022-10-16T11:37:37;101264.78;;;17.92;65.28
9325;BME280;4701;51.566;6.776;2022-10-16T11:39:40;101260.00;;;17.98;65.39
9325;BME280;4701;51.566;6.776;2022-10-16T11:41:47;101270.31;;;18.06;65.74
9325;BME280;4701;51.566;6.776;2022-10-16T11:43:58;101264.41;;;18.12;65.17
9325;BME280;4701;51.566;6.776;2022-10-16T11:46:09;101276.19;;;18.18;63.02
9325;BME280;4701;51.566;6.776;2022-10-16T11:48:20;101269.53;;;18.33;64.49
9325;BME280;4701;51.566;6.776;2022-10-16T11:50:29;101264.94;;;18.42;63.45
9325;BME280;4701;51.566;6.776;2022-10-16T11:52:36;101266.31;;;18.58;64.55
9325;BME280;4701;51.566;6.776;2022-10-16T11:54:45;101265.16;;;18.73;62.13
9325;BME280;4701;51.566;6.776;2022-10-16T11:56:52;101263.13;;;18.78;62.91
9325;BME280;4701;51.566;6.776;2022-10-16T11:58:59;101272.44;;;18.69;60.15
9325;BME280;4701;51.566;6.776;2022-10-16T12:01:15;101278.66;;;18.88;60.27
9325;BME280;4701;51.566;6.776;2022-10-16T12:03:21;101285.94;;;20.00;56.84
9325;BME280;4701;51.566;6.776;2022-10-16T12:05:34;101280.00;;;21.81;52.58
9325;BME280;4701;51.566;6.776;2022-10-16T12:07:47;101278.97;;;22.96;49.40
9325;BME280;4701;51.566;6.776;2022-10-16T12:09:51;101272.81;;;23.86;46.67
9325;BME280;4701;51.566;6.776;2022-10-16T12:11:53;101280.03;;;24.32;45.91
9325;BME280;4701;51.566;6.776;2022-10-16T12:14:05;101280.75;;;24.08;44.78
9325;BME280;4701;51.566;6.776;2022-10-16T12:16:22;101276.47;;;22.36;47.74
9325;BME280;4701;51.566;6.776;2022-10-16T12:18:25;101281.84;;;21.25;51.77
9325;BME280;4701;51.566;6.776;2022-10-16T12:20:29;101288.34;;;20.55;54.11
9325;BME280;4701;51.566;6.776;2022-10-16T12:22:32;101285.75;;;19.97;54.96
9325;BME280;4701;51.566;6.776;2022-10-16T12:24:36;101279.50;;;19.60;56.78
9325;BME280;4701;51.566;6.776;2022-10-16T12:26:39;101274.91;;;19.06;58.63
9325;BME280;4701;51.566;6.776;2022-10-16T12:28:42;101268.97;;;18.77;60.03
9325;BME280;4701;51.566;6.776;2022-10-16T12:30:53;101281.13;;;18.76;61.96
9325;BME280;4701;51.566;6.776;2022-10-16T12:32:57;101272.50;;;18.50;61.78
9325;BME280;4701;51.566;6.776;2022-10-16T12:35:01;101270.38;;;18.33;62.56
9325;BME280;4701;51.566;6.776;2022-10-16T12:37:10;101275.16;;;18.41;62.37
9325;BME280;4701;51.566;6.776;2022-10-16T12:39:20;101276.41;;;18.49;63.17
9325;BME280;4701;51.566;6.776;2022-10-16T12:41:27;101285.63;;;18.58;62.14
9325;BME280;4701;51.566;6.776;2022-10-16T12:43:38;101276.13;;;18.64;62.47
9325;BME280;4701;51.566;6.776;2022-10-16T12:45:42;101275.91;;;18.74;62.30
9325;BME280;4701;51.566;6.776;2022-10-16T12:47:50;101275.00;;;18.79;61.93
9325;BME280;4701;51.566;6.776;2022-10-16T12:49:55;101276.09;;;18.92;62.41
9325;BME280;4701;51.566;6.776;2022-10-16T12:51:58;101280.28;;;19.03;61.26
9325;BME280;4701;51.566;6.776;2022-10-16T12:54:00;101280.78;;;19.05;61.56
9325;BME280;4701;51.566;6.776;2022-10-16T12:56:09;101282.94;;;18.94;60.49
9325;BME280;4701;51.566;6.776;2022-10-16T12:58:35;101290.19;;;18.90;60.68
9325;BME280;4701;51.566;6.776;2022-10-16T13:00:44;101280.44;;;18.70;61.27
9325;BME280;4701;51.566;6.776;2022-10-16T13:05:40;101271.41;;;18.78;61.38
9325;BME280;4701;51.566;6.776;2022-10-16T13:07:55;101277.22;;;18.90;61.13
9325;BME280;4701;51.566;6.776;2022-10-16T13:10:07;101279.97;;;18.90;60.85
9325;BME280;4701;51.566;6.776;2022-10-16T13:12:20;101277.50;;;18.89;61.30
9325;BME280;4701;51.566;6.776;2022-10-16T13:14:39;101294.50;;;18.96;61.52
9325;BME280;4701;51.566;6.776;2022-10-16T13:16:54;101285.63;;;18.85;62.27
9325;BME280;4701;51.566;6.776;2022-10-16T13:19:08;101286.97;;;18.88;61.92
9325;BME280;4701;51.566;6.776;2022-10-16T13:21:24;101285.06;;;18.97;61.89
9325;BME280;4701;51.566;6.776;2022-10-16T13:23:32;101284.47;;;19.00;60.99
9325;BME280;4701;51.566;6.776;2022-10-16T13:25:48;101285.59;;;18.99;59.49
9325;BME280;4701;51.566;6.776;2022-10-16T13:27:56;101294.09;;;19.03;59.03
9325;BME280;4701;51.566;6.776;2022-10-16T13:30:12;101293.06;;;18.99;59.27
9325;BME280;4701;51.566;6.776;2022-10-16T13:32:15;101290.03;;;18.86;60.60
9325;BME280;4701;51.566;6.776;2022-10-16T13:34:20;101302.69;;;18.74;61.17
9325;BME280;4701;51.566;6.776;2022-10-16T13:36:26;101300.41;;;18.48;61.37
9325;BME280;4701;51.566;6.776;2022-10-16T13:38:30;101304.91;;;18.31;62.50
9325;BME280;4701;51.566;6.776;2022-10-16T13:40:33;101301.19;;;18.22;62.96
9325;BME280;4701;51.566;6.776;2022-10-16T13:42:35;101305.41;;;18.19;62.92
9325;BME280;4701;51.566;6.776;2022-10-16T13:44:40;101299.97;;;18.14;63.84
9325;BME280;4701;51.566;6.776;2022-10-16T13:46:44;101299.97;;;18.14;64.46
9325;BME280;4701;51.566;6.776;2022-10-16T13:48:56;101296.31;;;18.19;64.57
9325;BME280;4701;51.566;6.776;2022-10-16T13:51:05;101301.44;;;18.25;65.41
9325;BME280;4701;51.566;6.776;2022-10-16T13:53:13;101302.78;;;18.28;65.17
9325;BME280;4701;51.566;6.776;2022-10-16T13:55:16;101297.53;;;18.26;63.89
9325;BME280;4701;51.566;6.776;2022-10-16T13:57:21;101297.44;;;18.31;63.79
9325;BME280;4701;51.566;6.776;2022-10-16T13:59:25;101295.41;;;18.37;63.55
9325;BME280;4701;51.566;6.776;2022-10-16T14:01:31;101295.72;;;18.35;63.35
9325;BME280;4701;51.566;6.776;2022-10-16T14:03:34;101308.19;;;18.46;63.56
9325;BME280;4701;51.566;6.776;2022-10-16T14:05:43;101306.81;;;18.63;62.99
9325;BME280;4701;51.566;6.776;2022-10-16T14:07:49;101300.44;;;18.76;62.43
9325;BME280;4701;51.566;6.776;2022-10-16T14:09:54;101306.06;;;18.84;62.26
9325;BME280;4701;51.566;6.776;2022-10-16T14:11:58;101312.50;;;18.80;60.71
9325;BME280;4701;51.566;6.776;2022-10-16T14:14:02;101310.81;;;18.70;62.08
9325;BME280;4701;51.566;6.776;2022-10-16T14:16:07;101318.97;;;18.62;62.89
9325;BME280;4701;51.566;6.776;2022-10-16T14:18:18;101326.38;;;18.47;63.62
9325;BME280;4701;51.566;6.776;2022-10-16T14:20:25;101330.97;;;18.38;63.64
9325;BME280;4701;51.566;6.776;2022-10-16T14:22:30;101331.06;;;18.33;63.95
9325;BME280;4701;51.566;6.776;2022-10-16T14:24:34;101325.03;;;18.31;63.12
9325;BME280;4701;51.566;6.776;2022-10-16T14:26:42;101320.75;;;18.25;63.29
9325;BME280;4701;51.566;6.776;2022-10-16T14:28:45;101316.63;;;18.23;63.17
9325;BME280;4701;51.566;6.776;2022-10-16T14:30:52;101309.47;;;18.22;63.62
9325;BME280;4701;51.566;6.776;2022-10-16T14:32:56;101318.22;;;18.29;63.45
9325;BME280;4701;51.566;6.776;2022-10-16T14:34:58;101303.69;;;18.37;63.66
9325;BME280;4701;51.566;6.776;2022-10-16T14:37:05;101309.53;;;18.49;63.75
9325;BME280;4701;51.566;6.776;2022-10-16T14:39:18;101308.69;;;18.48;63.54
9325;BME280;4701;51.566;6.776;2022-10-16T14:41:21;101312.81;;;18.51;62.60
9325;BME280;4701;51.566;6.776;2022-10-16T14:43:31;101308.69;;;18.48;62.98
9325;BME280;4701;51.566;6.776;2022-10-16T14:45:34;101312.38;;;18.44;62.44
9325;BME280;4701;51.566;6.776;2022-10-16T14:47:47;101308.41;;;18.36;63.62
9325;BME280;4701;51.566;6.776;2022-10-16T14:49:50;101314.53;;;18.33;63.94
9325;BME280;4701;51.566;6.776;2022-10-16T14:51:52;101321.75;;;18.29;63.21
9325;BME280;4701;51.566;6.776;2022-10-16T14:53:54;101316.75;;;18.31;64.23
9325;BME280;4701;51.566;6.776;2022-10-16T14:55:55;101314.41;;;18.25;63.63
9325;BME280;4701;51.566;6.776;2022-10-16T14:57:57;101311.66;;;18.25;64.02
9325;BME280;4701;51.566;6.776;2022-10-16T15:00:00;101310.59;;;18.21;64.19
9325;BME280;4701;51.566;6.776;2022-10-16T15:02:18;101313.34;;;18.21;63.93
9325;BME280;4701;51.566;6.776;2022-10-16T15:04:20;101305.09;;;18.21;65.31
9325;BME280;4701;51.566;6.776;2022-10-16T15:06:22;101308.66;;;18.21;65.73
9325;BME280;4701;51.566;6.776;2022-10-16T15:08:24;101311.75;;;18.20;65.34
9325;BME280;4701;51.566;6.776;2022-10-16T15:10:27;101315.09;;;18.17;65.67
9325;BME280;4701;51.566;6.776;2022-10-16T15:12:30;101317.34;;;18.14;65.90
9325;BME280;4701;51.566;6.776;2022-10-16T15:14:32;101306.94;;;18.11;65.66
9325;BME280;4701;51.566;6.776;2022-10-16T15:16:35;101306.13;;;18.11;66.32
9325;BME280;4701;51.566;6.776;2022-10-16T15:18:37;101303.66;;;18.09;67.54
9325;BME280;4701;51.566;6.776;2022-10-16T15:20:39;101311.41;;;18.07;70.13
9325;BME280;4701;51.566;6.776;2022-10-16T15:22:41;101308.75;;;18.02;71.62
9325;BME280;4701;51.566;6.776;2022-10-16T15:24:43;101305.16;;;18.02;71.72
9325;BME280;4701;51.566;6.776;2022-10-16T15:26:44;101309.03;;;18.01;72.52
9325;BME280;4701;51.566;6.776;2022-10-16T15:28:49;101298.31;;;17.99;73.28
9325;BME280;4701;51.566;6.776;2022-10-16T15:30:52;101298.91;;;17.96;74.84
9325;BME280;4701;51.566;6.776;2022-10-16T15:32:55;101306.97;;;17.93;75.84
9325;BME280;4701;51.566;6.776;2022-10-16T15:34:57;101304.81;;;17.90;76.63
9325;BME280;4701;51.566;6.776;2022-10-16T15:37:02;101307.16;;;17.83;76.92
9325;BME280;4701;51.566;6.776;2022-10-16T15:39:04;101305.38;;;17.73;77.19
9325;BME280;4701;51.566;6.776;2022-10-16T15:41:06;101305.25;;;17.64;78.47
9325;BME280;4701;51.566;6.776;2022-10-16T15:43:08;101304.19;;;17.60;78.68
9325;BME280;4701;51.566;6.776;2022-10-16T15:45:12;101295.09;;;17.60;79.83
9325;BME280;4701;51.566;6.776;2022-10-16T15:47:14;101287.72;;;17.55;79.94
9325;BME280;4701;51.566;6.776;2022-10-16T15:49:17;101298.75;;;17.55;80.08
9325;BME280;4701;51.566;6.776;2022-10-16T15:51:19;101295.44;;;17.53;80.03
9325;BME280;4701;51.566;6.776;2022-10-16T15:53:20;101282.81;;;17.52;81.15
9325;BME280;4701;51.566;6.776;2022-10-16T15:55:22;101283.13;;;17.51;81.14
9325;BME280;4701;51.566;6.776;2022-10-16T15:57:24;101287.56;;;17.47;81.24
9325;BME280;4701;51.566;6.776;2022-10-16T15:59:27;101292.34;;;17.41;81.58
9325;BME280;4701;51.566;6.776;2022-10-16T16:01:32;101288.03;;;17.35;81.59
9325;BME280;4701;51.566;6.776;2022-10-16T16:03:34;101282.06;;;17.28;82.23
9325;BME280;4701;51.566;6.776;2022-10-16T16:05:38;101297.56;;;17.24;82.00
9325;BME280;4701;51.566;6.776;2022-10-16T16:07:40;101292.13;;;17.19;82.27
9325;BME280;4701;51.566;6.776;2022-10-16T16:09:42;101298.00;;;17.12;82.73
9325;BME280;4701;51.566;6.776;2022-10-16T16:11:45;101290.13;;;17.06;83.10
9325;BME280;4701;51.566;6.776;2022-10-16T16:13:47;101290.78;;;16.97;84.05
9325;BME280;4701;51.566;6.776;2022-10-16T16:15:48;101297.75;;;16.90;84.44